createdAt,value
2019-02-11T00:01:45.759Z,5.36
2019-02-11T00:04:14.953Z,5.31
2019-02-11T00:06:44.116Z,5.28
2019-02-11T00:09:13.330Z,5.19
2019-02-11T00:11:42.594Z,5.13
2019-02-11T00:14:11.770Z,5.11
2019-02-11T00:16:40.969Z,5.20
2019-02-11T00:19:11.104Z,5.16
2019-02-11T00:21:40.256Z,5.21
2019-02-11T00:24:09.436Z,5.24
2019-02-11T00:26:38.637Z,5.38
2019-02-11T00:29:07.811Z,5.39
2019-02-11T00:31:36.989Z,5.43
2019-02-11T00:34:06.185Z,5.35
2019-02-11T00:36:35.337Z,5.38
2019-02-11T00:39:05.766Z,5.45
2019-02-11T00:41:34.960Z,5.47
2019-02-11T00:44:04.206Z,5.44
2019-02-11T00:46:33.393Z,5.51
2019-02-11T00:49:02.611Z,5.41
2019-02-11T00:51:31.779Z,5.44
2019-02-11T00:54:00.972Z,5.40
2019-02-11T00:56:31.159Z,5.35
2019-02-11T00:59:00.330Z,5.43
2019-02-11T01:01:29.491Z,5.40
2019-02-11T01:03:58.698Z,5.41
2019-02-11T01:06:27.882Z,5.39
2019-02-11T01:08:57.072Z,5.35
2019-02-11T01:11:26.273Z,5.33
2019-02-11T01:13:55.450Z,5.32
2019-02-11T01:16:24.625Z,5.31
2019-02-11T01:18:53.827Z,5.32
2019-02-11T01:21:22.995Z,5.33
2019-02-11T01:23:52.163Z,5.29
2019-02-11T01:26:21.468Z,5.27
2019-02-11T01:28:50.629Z,5.21
2019-02-11T01:31:19.800Z,5.25
2019-02-11T01:33:48.999Z,5.19
2019-02-11T01:36:18.173Z,5.19
2019-02-11T01:38:47.360Z,5.26
2019-02-11T01:41:16.566Z,5.27
2019-02-11T01:43:45.742Z,5.24
2019-02-11T01:46:14.976Z,5.25
2019-02-11T01:48:44.176Z,5.23
2019-02-11T01:51:13.352Z,5.20
2019-02-11T01:53:42.576Z,5.21
2019-02-11T01:56:11.764Z,5.16
2019-02-11T01:58:40.956Z,5.19
2019-02-11T02:01:10.151Z,5.26
2019-02-11T02:03:39.342Z,5.20
2019-02-11T02:06:08.507Z,5.18
2019-02-11T02:08:37.748Z,5.19
2019-02-11T02:11:06.939Z,5.21
2019-02-11T02:13:44.430Z,5.17
2019-02-11T02:16:07.028Z,5.19
2019-02-11T02:18:36.208Z,5.28
2019-02-11T02:21:05.437Z,5.31
2019-02-11T02:23:34.645Z,5.43
2019-02-11T02:26:03.857Z,5.46
2019-02-11T02:28:33.071Z,5.54
2019-02-11T02:31:02.280Z,5.53
2019-02-11T02:33:31.456Z,5.58
2019-02-11T02:36:00.640Z,5.56
2019-02-11T02:38:29.837Z,5.59
2019-02-11T02:40:59.021Z,5.66
2019-02-11T02:43:28.202Z,5.70
2019-02-11T02:45:57.391Z,5.75
2019-02-11T02:48:26.558Z,5.76
2019-02-11T02:50:55.736Z,5.84
2019-02-11T02:53:24.942Z,5.80
2019-02-11T02:55:54.115Z,5.79
2019-02-11T02:58:23.294Z,5.64
2019-02-11T03:00:52.491Z,5.55
2019-02-11T03:03:21.663Z,5.48
2019-02-11T03:05:52.813Z,5.42
2019-02-11T03:08:21.728Z,5.45
2019-02-11T03:10:50.894Z,5.49
2019-02-11T03:13:20.117Z,5.55
2019-02-11T03:15:50.258Z,5.61
2019-02-11T03:18:19.416Z,5.65
2019-02-11T03:20:48.634Z,5.73
2019-02-11T03:23:17.887Z,5.72
2019-02-11T03:25:46.970Z,5.75
2019-02-11T03:28:16.200Z,5.72
2019-02-11T03:30:45.391Z,5.70
2019-02-11T03:33:14.603Z,5.67
2019-02-11T03:35:43.759Z,5.63
2019-02-11T03:38:12.924Z,5.57
2019-02-11T03:40:42.092Z,5.43
2019-02-11T03:43:13.191Z,5.33
2019-02-11T03:45:42.358Z,5.25
2019-02-11T03:48:11.518Z,5.18
2019-02-11T03:50:40.705Z,5.17
2019-02-11T03:53:09.957Z,5.13
2019-02-11T03:55:39.147Z,5.11
2019-02-11T03:58:08.398Z,5.14
2019-02-11T04:00:37.801Z,5.14
2019-02-11T04:03:06.991Z,5.17
2019-02-11T04:05:36.163Z,5.26
2019-02-11T04:08:05.338Z,5.30
2019-02-11T04:10:52.572Z,5.34
2019-02-11T04:13:36.830Z,5.42
2019-02-11T04:16:05.984Z,5.49
2019-02-11T04:18:35.157Z,5.51
2019-02-11T04:21:04.333Z,5.54
2019-02-11T04:23:33.525Z,5.59
2019-02-11T04:26:02.698Z,5.54
2019-02-11T04:28:32.137Z,5.56
2019-02-11T04:31:01.324Z,5.56
2019-02-11T04:33:30.496Z,5.57
2019-02-11T04:35:59.618Z,5.59
2019-02-11T04:38:28.757Z,5.63
2019-02-11T04:40:57.962Z,5.64
2019-02-11T04:43:27.141Z,5.69
2019-02-11T04:45:56.257Z,5.69
2019-02-11T04:48:25.450Z,5.68
2019-02-11T04:50:54.627Z,5.72
2019-02-11T04:53:23.837Z,5.80
2019-02-11T04:55:52.934Z,5.81
2019-02-11T04:58:22.117Z,5.79
2019-02-11T05:00:51.572Z,5.83
2019-02-11T05:03:20.746Z,5.77
2019-02-11T05:05:49.904Z,5.73
2019-02-11T05:08:19.099Z,5.73
2019-02-11T05:10:48.285Z,5.75
2019-02-11T05:13:17.460Z,5.76
2019-02-11T05:15:46.662Z,5.80
2019-02-11T05:18:16.913Z,5.83
2019-02-11T05:20:46.390Z,5.78
2019-02-11T05:23:15.590Z,5.78
2019-02-11T05:25:44.810Z,5.82
2019-02-11T05:28:13.977Z,5.80
2019-02-11T05:30:43.309Z,5.87
2019-02-11T05:33:12.513Z,5.89
2019-02-11T05:35:41.686Z,5.87
2019-02-11T05:38:10.885Z,5.79
2019-02-11T05:40:40.059Z,5.77
2019-02-11T05:43:09.254Z,5.76
2019-02-11T05:45:38.410Z,5.70
2019-02-11T05:48:07.599Z,5.60
2019-02-11T05:50:36.756Z,5.54
2019-02-11T05:53:05.949Z,5.47
2019-02-11T05:55:35.120Z,5.45
2019-02-11T05:58:04.300Z,5.34
2019-02-11T06:00:33.501Z,5.25
2019-02-11T06:03:02.679Z,5.25
2019-02-11T06:05:31.859Z,5.32
2019-02-11T06:08:01.048Z,5.37
2019-02-11T06:10:30.248Z,5.46
2019-02-11T06:12:59.423Z,5.45
2019-02-11T06:15:28.601Z,5.46
2019-02-11T06:17:57.801Z,5.42
2019-02-11T06:20:26.995Z,5.39
2019-02-11T06:22:56.174Z,5.31
2019-02-11T06:25:25.371Z,5.29
2019-02-11T06:27:54.547Z,5.31
2019-02-11T06:30:23.800Z,5.29
2019-02-11T06:32:53.015Z,5.26
2019-02-11T06:35:22.186Z,5.27
2019-02-11T06:37:51.376Z,5.28
2019-02-11T06:40:20.541Z,5.26
2019-02-11T06:42:49.737Z,5.17
2019-02-11T06:45:18.969Z,5.14
2019-02-11T06:47:48.155Z,5.21
2019-02-11T06:50:17.330Z,5.27
2019-02-11T06:52:46.519Z,5.32
2019-02-11T06:55:15.693Z,5.41
2019-02-11T06:57:44.887Z,5.47
2019-02-11T07:00:15.510Z,5.51
2019-02-11T07:02:44.696Z,5.51
2019-02-11T07:05:13.907Z,5.52
2019-02-11T07:07:43.104Z,5.49
2019-02-11T07:10:12.524Z,5.41
2019-02-11T07:12:41.718Z,5.37
2019-02-11T07:15:21.223Z,5.38
2019-02-11T07:17:44.299Z,5.28
2019-02-11T07:20:13.589Z,5.30
2019-02-11T07:22:42.753Z,5.33
2019-02-11T07:25:11.985Z,5.41
2019-02-11T07:27:41.270Z,5.41
2019-02-11T07:30:12.768Z,5.39
2019-02-11T07:32:41.940Z,5.42
2019-02-11T07:35:11.210Z,5.57
2019-02-11T07:37:40.375Z,5.83
2019-02-11T07:40:13.779Z,5.76
2019-02-11T07:42:53.112Z,5.77
2019-02-11T07:45:35.715Z,5.77
2019-02-11T07:48:05.018Z,6.06
2019-02-11T07:50:34.216Z,6.59
2019-02-11T07:53:04.406Z,7.25
2019-02-11T07:55:33.594Z,7.69
2019-02-11T07:58:02.778Z,7.90
2019-02-11T08:00:31.964Z,8.00
2019-02-11T08:03:01.260Z,8.63
2019-02-11T08:05:30.418Z,8.99
2019-02-11T08:07:59.870Z,9.41
2019-02-11T08:10:29.370Z,9.68
2019-02-11T08:12:58.532Z,9.68
2019-02-11T08:15:27.712Z,10.02
2019-02-11T08:17:58.208Z,10.04
2019-02-11T08:20:27.489Z,10.16
2019-02-11T08:22:56.660Z,10.07
2019-02-11T08:25:25.838Z,9.84
2019-02-11T08:27:55.016Z,9.42
2019-02-11T08:30:24.275Z,9.29
2019-02-11T08:32:53.444Z,9.31
2019-02-11T08:35:22.692Z,9.97
2019-02-11T08:37:51.858Z,10.41
2019-02-11T08:40:21.126Z,11.16
2019-02-11T08:42:50.306Z,10.15
2019-02-11T08:45:19.504Z,10.27
2019-02-11T08:47:48.717Z,10.78
2019-02-11T08:50:18.634Z,10.41
2019-02-11T08:52:47.890Z,9.79
2019-02-11T08:55:17.134Z,9.86
2019-02-11T08:57:46.323Z,10.26
2019-02-11T09:00:15.570Z,9.71
2019-02-11T09:02:44.828Z,9.78
2019-02-11T09:05:14.143Z,9.98
2019-02-11T09:07:43.335Z,9.49
2019-02-11T09:10:13.335Z,9.67
2019-02-11T09:12:42.504Z,9.47
2019-02-11T09:15:12.974Z,9.42
2019-02-11T09:17:42.150Z,8.46
2019-02-11T09:20:11.760Z,8.09
2019-02-11T09:22:40.994Z,8.09
2019-02-11T09:25:10.859Z,7.95
2019-02-11T09:27:40.068Z,7.90
2019-02-11T09:30:17.030Z,7.82
2019-02-11T09:32:46.233Z,7.96
2019-02-11T09:35:15.419Z,7.82
2019-02-11T09:37:44.593Z,7.84
2019-02-11T09:40:15.727Z,7.87
2019-02-11T09:42:44.974Z,7.78
2019-02-11T09:45:20.051Z,7.84
2019-02-11T09:47:49.334Z,7.90
2019-02-11T09:50:33.167Z,7.99
2019-02-11T09:53:03.298Z,7.93
2019-02-11T09:55:33.916Z,7.85
2019-02-11T09:58:03.156Z,7.91
2019-02-11T10:00:32.435Z,8.01
2019-02-11T10:03:01.610Z,8.11
2019-02-11T10:05:30.778Z,8.40
2019-02-11T10:07:59.965Z,8.04
2019-02-11T10:10:29.129Z,7.97
2019-02-11T10:12:58.316Z,8.01
2019-02-11T10:15:27.507Z,8.09
2019-02-11T10:17:57.119Z,8.10
2019-02-11T10:20:26.372Z,7.95
2019-02-11T10:22:55.603Z,8.06
2019-02-11T10:25:27.427Z,8.22
2019-02-11T10:28:02.820Z,8.21
2019-02-11T10:30:32.010Z,8.26
2019-02-11T10:33:01.183Z,8.25
2019-02-11T10:35:30.432Z,8.17
2019-02-11T10:37:59.646Z,8.11
2019-02-11T10:40:28.842Z,7.98
2019-02-11T10:42:58.034Z,7.98
2019-02-11T10:45:27.293Z,7.90
2019-02-11T10:47:56.498Z,8.27
2019-02-11T10:50:25.689Z,8.64
2019-02-11T10:52:54.954Z,8.56
2019-02-11T10:55:24.289Z,8.19
2019-02-11T10:57:53.482Z,8.14
2019-02-11T11:00:41.363Z,7.91
2019-02-11T11:03:28.321Z,7.81
2019-02-11T11:05:57.538Z,7.77
2019-02-11T11:08:26.726Z,7.70
2019-02-11T11:10:55.966Z,7.65
2019-02-11T11:13:25.170Z,7.60
2019-02-11T11:15:54.366Z,7.57
2019-02-11T11:18:23.561Z,7.64
2019-02-11T11:20:52.773Z,7.60
2019-02-11T11:23:21.951Z,7.71
2019-02-11T11:25:51.188Z,7.65
2019-02-11T11:28:20.388Z,7.64
2019-02-11T11:30:49.564Z,7.74
2019-02-11T11:33:18.729Z,7.96
2019-02-11T11:35:47.943Z,8.17
2019-02-11T11:38:17.114Z,8.34
2019-02-11T11:40:46.291Z,8.34
2019-02-11T11:43:15.488Z,8.45
2019-02-11T11:45:44.668Z,8.54
2019-02-11T11:48:13.833Z,8.52
2019-02-11T11:50:43.128Z,8.40
2019-02-11T11:53:12.305Z,8.32
2019-02-11T11:55:41.541Z,8.50
2019-02-11T11:58:10.730Z,8.32
2019-02-11T12:00:39.987Z,8.15
2019-02-11T12:03:09.218Z,8.01
2019-02-11T12:05:38.499Z,7.96
2019-02-11T12:08:07.687Z,7.96
2019-02-11T12:10:36.872Z,7.96
2019-02-11T12:13:21.789Z,8.05
2019-02-11T12:15:37.274Z,8.15
2019-02-11T12:18:06.787Z,8.16
2019-02-11T12:20:36.075Z,8.24
2019-02-11T12:23:05.239Z,8.24
2019-02-11T12:25:34.423Z,8.35
2019-02-11T12:28:03.626Z,8.35
2019-02-11T12:30:32.887Z,8.27
2019-02-11T12:33:02.462Z,8.33
2019-02-11T12:35:31.635Z,8.45
2019-02-11T12:38:00.797Z,8.44
2019-02-11T12:40:30.006Z,8.43
2019-02-11T12:42:59.205Z,8.40
2019-02-11T12:45:28.377Z,8.44
2019-02-11T12:47:57.543Z,8.47
2019-02-11T12:50:26.851Z,8.41
2019-02-11T12:52:56.036Z,8.41
2019-02-11T12:55:25.222Z,8.46
2019-02-11T12:57:54.428Z,8.54
2019-02-11T13:00:24.318Z,8.40
2019-02-11T13:02:53.499Z,8.42
2019-02-11T13:05:40.226Z,8.41
2019-02-11T13:07:53.614Z,8.42
2019-02-11T13:10:22.922Z,8.25
2019-02-11T13:12:52.205Z,8.35
2019-02-11T13:15:53.225Z,8.34
2019-02-11T13:17:52.361Z,8.43
2019-02-11T13:20:21.610Z,8.40
2019-02-11T13:22:50.784Z,8.41
2019-02-11T13:25:20.017Z,8.47
2019-02-11T13:27:49.246Z,8.29
2019-02-11T13:30:23.228Z,8.23
2019-02-11T13:32:52.487Z,8.28
2019-02-11T13:35:21.693Z,8.35
2019-02-11T13:37:54.747Z,8.38
2019-02-11T13:40:21.701Z,8.42
2019-02-11T13:42:50.909Z,8.20
2019-02-11T13:45:21.289Z,8.47
2019-02-11T13:47:56.045Z,8.61
2019-02-11T13:50:24.484Z,8.71
2019-02-11T13:52:54.565Z,8.62
2019-02-11T13:55:24.140Z,8.55
2019-02-11T13:57:53.794Z,8.51
2019-02-11T14:00:33.858Z,8.36
2019-02-11T14:03:05.694Z,8.43
2019-02-11T14:05:35.223Z,8.29
2019-02-11T14:08:05.907Z,8.20
2019-02-11T14:10:35.341Z,8.19
2019-02-11T14:13:05.188Z,8.23
2019-02-11T14:15:34.428Z,8.25
2019-02-11T14:18:13.075Z,8.16
2019-02-11T14:20:39.932Z,8.24
2019-02-11T14:23:09.254Z,8.25
2019-02-11T14:25:44.860Z,8.33
2019-02-11T14:28:09.398Z,8.27
2019-02-11T14:30:38.649Z,8.38
2019-02-11T14:33:08.052Z,8.24
2019-02-11T14:35:37.440Z,8.24
2019-02-11T14:38:06.647Z,8.19
2019-02-11T14:40:35.918Z,8.27
2019-02-11T14:43:05.164Z,8.22
2019-02-11T14:45:34.349Z,8.17
2019-02-11T14:48:03.599Z,8.04
2019-02-11T14:50:32.792Z,8.04
2019-02-11T14:53:01.989Z,7.99
2019-02-11T14:55:31.179Z,7.93
2019-02-11T14:58:01.896Z,7.94
2019-02-11T15:00:31.074Z,7.95
2019-02-11T15:03:00.328Z,7.84
2019-02-11T15:05:29.509Z,7.79
2019-02-11T15:07:58.685Z,7.81
2019-02-11T15:10:27.896Z,7.83
2019-02-11T15:12:57.078Z,7.80
2019-02-11T15:15:26.276Z,7.75
2019-02-11T15:17:55.462Z,7.67
2019-02-11T15:20:25.489Z,7.63
2019-02-11T15:22:54.687Z,7.62
2019-02-11T15:25:23.941Z,7.62
2019-02-11T15:27:53.109Z,7.58
2019-02-11T15:30:22.314Z,7.42
2019-02-11T15:32:51.477Z,7.46
2019-02-11T15:35:20.641Z,7.42
2019-02-11T15:37:49.858Z,7.36
2019-02-11T15:40:22.091Z,7.37
2019-02-11T15:42:51.272Z,7.32
2019-02-11T15:45:20.471Z,7.33
2019-02-11T15:47:49.658Z,7.30
2019-02-11T15:50:18.904Z,7.31
2019-02-11T15:52:48.134Z,7.31
2019-02-11T15:55:21.255Z,7.30
2019-02-11T15:57:50.405Z,7.28
2019-02-11T16:00:23.362Z,7.25
2019-02-11T16:02:52.631Z,7.25
2019-02-11T16:05:21.821Z,7.26
2019-02-11T16:07:51.008Z,7.30
2019-02-11T16:10:25.870Z,7.24
2019-02-11T16:12:55.088Z,7.23
2019-02-11T16:15:24.370Z,7.10
2019-02-11T16:17:53.590Z,7.11
2019-02-11T16:20:22.762Z,7.06
2019-02-11T16:22:51.948Z,7.04
2019-02-11T16:25:21.235Z,7.02
2019-02-11T16:27:50.422Z,6.99
2019-02-11T16:30:22.325Z,6.96
2019-02-11T16:32:51.543Z,6.90
2019-02-11T16:35:20.803Z,6.87
2019-02-11T16:37:49.976Z,6.88
2019-02-11T16:40:24.756Z,6.82
2019-02-11T16:42:53.986Z,6.74
2019-02-11T16:45:23.514Z,6.71
2019-02-11T16:47:52.709Z,6.71
2019-02-11T16:50:21.883Z,6.68
2019-02-11T16:52:51.070Z,6.68
2019-02-11T16:55:20.269Z,6.66
2019-02-11T16:57:49.451Z,6.70
2019-02-11T17:00:19.684Z,6.67
2019-02-11T17:02:48.877Z,6.58
2019-02-11T17:05:18.044Z,6.51
2019-02-11T17:07:47.243Z,6.50
2019-02-11T17:10:16.563Z,6.50
2019-02-11T17:12:45.898Z,6.44
2019-02-11T17:15:19.281Z,6.34
2019-02-11T17:17:48.555Z,6.28
2019-02-11T17:20:17.886Z,6.28
2019-02-11T17:22:47.118Z,6.32
2019-02-11T17:25:16.283Z,6.23
2019-02-11T17:27:45.482Z,6.30
2019-02-11T17:30:17.752Z,6.33
2019-02-11T17:32:46.944Z,6.32
2019-02-11T17:35:16.138Z,6.24
2019-02-11T17:37:45.322Z,6.19
2019-02-11T17:40:14.770Z,6.18
2019-02-11T17:42:44.021Z,6.09
2019-02-11T17:45:21.185Z,6.08
2019-02-11T17:47:50.389Z,6.10
2019-02-11T17:50:19.631Z,6.05
2019-02-11T17:52:50.656Z,5.98
2019-02-11T17:55:19.861Z,6.01
2019-02-11T17:57:49.335Z,6.01
2019-02-11T18:00:25.748Z,5.93
2019-02-11T18:02:54.919Z,5.91
2019-02-11T18:05:24.094Z,5.91
2019-02-11T18:07:53.303Z,5.88
2019-02-11T18:10:22.477Z,5.93
2019-02-11T18:12:53.413Z,5.88
2019-02-11T18:15:22.703Z,5.83
2019-02-11T18:17:53.506Z,5.79
2019-02-11T18:20:22.689Z,5.72
2019-02-11T18:22:51.898Z,5.69
2019-02-11T18:25:21.086Z,5.67
2019-02-11T18:27:50.281Z,5.69
2019-02-11T18:30:22.254Z,5.70
2019-02-11T18:32:53.241Z,5.66
2019-02-11T18:35:22.986Z,5.60
2019-02-11T18:37:52.471Z,5.62
2019-02-11T18:40:21.652Z,5.57
2019-02-11T18:42:50.868Z,5.57
2019-02-11T18:45:20.110Z,5.54
2019-02-11T18:47:50.588Z,5.56
2019-02-11T18:50:20.993Z,5.53
2019-02-11T18:52:50.938Z,5.53
2019-02-11T18:55:21.371Z,5.52
2019-02-11T18:57:50.967Z,5.51
2019-02-11T19:00:20.445Z,5.51
2019-02-11T19:02:49.898Z,5.51
2019-02-11T19:05:19.146Z,5.50
2019-02-11T19:07:48.343Z,5.47
2019-02-11T19:10:18.973Z,5.44
2019-02-11T19:12:48.230Z,5.43
2019-02-11T19:15:18.693Z,5.38
2019-02-11T19:17:47.979Z,5.38
2019-02-11T19:20:17.931Z,5.35
2019-02-11T19:22:47.083Z,5.32
2019-02-11T19:25:16.274Z,5.30
2019-02-11T19:27:45.617Z,5.28
2019-02-11T19:30:21.010Z,5.26
2019-02-11T19:32:50.385Z,5.28
2019-02-11T19:35:19.719Z,5.27
2019-02-11T19:37:48.904Z,5.28
2019-02-11T19:40:19.537Z,5.26
2019-02-11T19:42:49.179Z,5.25
2019-02-11T19:45:20.977Z,5.26
2019-02-11T19:47:50.303Z,5.23
2019-02-11T19:50:19.613Z,5.21
2019-02-11T19:52:48.856Z,5.19
2019-02-11T19:55:18.171Z,5.17
2019-02-11T19:57:47.390Z,5.17
2019-02-11T20:00:23.447Z,5.17
2019-02-11T20:02:52.655Z,5.16
2019-02-11T20:05:21.848Z,5.14
2019-02-11T20:07:51.025Z,5.15
2019-02-11T20:10:21.765Z,5.15
2019-02-11T20:12:50.981Z,5.13
2019-02-11T20:15:23.204Z,5.14
2019-02-11T20:17:52.391Z,5.13
2019-02-11T20:20:22.927Z,5.11
2019-02-11T20:22:52.181Z,5.10
2019-02-11T20:25:21.459Z,5.11
2019-02-11T20:27:50.639Z,5.09
2019-02-11T20:30:25.606Z,5.08
2019-02-11T20:32:56.351Z,5.06
2019-02-11T20:35:25.599Z,5.08
2019-02-11T20:37:54.795Z,5.05
2019-02-11T20:40:28.542Z,5.01
2019-02-11T20:42:57.719Z,5.02
2019-02-11T20:45:29.966Z,5.03
2019-02-11T20:47:59.290Z,5.00
2019-02-11T20:50:28.516Z,4.97
2019-02-11T20:52:57.721Z,4.96
2019-02-11T20:55:26.903Z,4.92
2019-02-11T20:57:58.515Z,4.91
2019-02-11T21:00:27.885Z,4.91
2019-02-11T21:02:57.049Z,4.90
2019-02-11T21:05:26.392Z,4.91
2019-02-11T21:07:55.684Z,4.92
2019-02-11T21:10:25.900Z,4.93
2019-02-11T21:12:55.753Z,4.92
2019-02-11T21:15:26.790Z,4.91
2019-02-11T21:17:55.960Z,4.91
2019-02-11T21:20:28.267Z,4.89
2019-02-11T21:22:57.501Z,4.88
2019-02-11T21:25:26.664Z,4.85
2019-02-11T21:27:55.852Z,4.85
2019-02-11T21:30:25.055Z,4.80
2019-02-11T21:32:54.227Z,4.81
2019-02-11T21:35:23.401Z,4.80
2019-02-11T21:37:52.611Z,4.80
2019-02-11T21:40:21.801Z,4.81
2019-02-11T21:42:50.997Z,4.83
2019-02-11T21:45:20.172Z,4.80
2019-02-11T21:47:49.348Z,4.78
2019-02-11T21:50:26.362Z,4.78
2019-02-11T21:52:51.272Z,4.79
2019-02-11T21:55:22.715Z,4.78
2019-02-11T21:57:51.881Z,4.79
2019-02-11T22:00:22.218Z,4.80
2019-02-11T22:02:51.398Z,4.80
2019-02-11T22:05:20.579Z,4.78
2019-02-11T22:07:49.780Z,4.77
2019-02-11T22:10:23.545Z,4.79
2019-02-11T22:12:52.728Z,4.79
2019-02-11T22:15:21.914Z,4.75
2019-02-11T22:17:51.164Z,4.78
2019-02-11T22:20:21.272Z,4.77
2019-02-11T22:22:50.550Z,4.77
2019-02-11T22:25:19.719Z,4.79
2019-02-11T22:27:48.898Z,4.78
2019-02-11T22:30:23.023Z,4.77
2019-02-11T22:32:52.195Z,4.76
2019-02-11T22:35:21.389Z,4.74
2019-02-11T22:37:51.327Z,4.73
2019-02-11T22:40:20.518Z,4.72
2019-02-11T22:42:49.706Z,4.72
2019-02-11T22:45:27.266Z,4.73
2019-02-11T22:47:56.453Z,4.72
2019-02-11T22:50:25.634Z,4.72
2019-02-11T22:52:54.824Z,4.68
2019-02-11T22:55:24.002Z,4.68
2019-02-11T22:57:53.186Z,4.66
2019-02-11T23:00:27.245Z,4.63
2019-02-11T23:02:56.425Z,4.51
2019-02-11T23:05:25.629Z,4.60
2019-02-11T23:07:54.823Z,4.60
2019-02-11T23:10:24.056Z,4.58
2019-02-11T23:12:53.229Z,4.57
2019-02-11T23:15:22.461Z,4.58
2019-02-11T23:17:51.629Z,4.59
2019-02-11T23:20:20.964Z,4.59
2019-02-11T23:22:50.171Z,4.61
2019-02-11T23:25:19.364Z,4.58
2019-02-11T23:27:48.553Z,4.57
2019-02-11T23:30:17.750Z,4.60
2019-02-11T23:32:46.940Z,4.61
2019-02-11T23:35:16.138Z,4.62
2019-02-11T23:37:45.318Z,4.61
2019-02-11T23:40:14.501Z,4.62
2019-02-11T23:42:43.795Z,4.67
2019-02-11T23:45:13.988Z,4.65
2019-02-11T23:47:43.276Z,4.67
2019-02-11T23:50:12.730Z,4.65
2019-02-11T23:52:41.910Z,4.67
2019-02-11T23:55:11.260Z,4.67
2019-02-11T23:57:40.434Z,4.68
